createdAt,value
2022-09-03T00:00:07.350Z,92.10
2022-09-03T00:02:40.969Z,92.20
2022-09-03T00:05:12.934Z,92.60
2022-09-03T00:07:44.512Z,92.70
2022-09-03T00:10:14.637Z,92.60
2022-09-03T00:12:44.970Z,92.90
2022-09-03T00:15:13.888Z,92.80
2022-09-03T00:17:43.152Z,92.90
2022-09-03T00:20:14.459Z,93.00
2022-09-03T00:22:44.632Z,93.20
2022-09-03T00:25:14.555Z,93.20
2022-09-03T00:27:43.957Z,93.30
2022-09-03T00:30:13.070Z,93.50
2022-09-03T00:32:47.444Z,93.50
2022-09-03T00:35:18.115Z,93.60
2022-09-03T00:37:45.872Z,93.80
2022-09-03T00:40:18.780Z,93.80
2022-09-03T00:42:50.177Z,93.70
2022-09-03T00:45:21.723Z,94.40
2022-09-03T00:48:02.186Z,93.90
2022-09-03T00:50:35.564Z,93.50
2022-09-03T00:53:06.821Z,93.90
2022-09-03T00:55:39.332Z,94.90
2022-09-03T00:58:15.303Z,93.70
2022-09-03T01:00:43.586Z,93.90
2022-09-03T01:03:13.296Z,94.20
2022-09-03T01:05:53.054Z,94.20
2022-09-03T01:08:36.862Z,94.20
2022-09-03T01:11:11.880Z,94.30
2022-09-03T01:13:41.887Z,94.40
2022-09-03T01:16:12.112Z,94.80
2022-09-03T01:18:45.014Z,94.50
2022-09-03T01:21:21.085Z,94.60
2022-09-03T01:24:07.373Z,94.60
2022-09-03T01:26:41.962Z,94.80
2022-09-03T01:29:14.851Z,94.90
2022-09-03T01:31:46.577Z,95.10
2022-09-03T01:34:20.528Z,95.10
2022-09-03T01:36:53.150Z,95.30
2022-09-03T01:39:27.673Z,95.30
2022-09-03T01:42:20.753Z,95.40
2022-09-03T01:45:06.346Z,95.40
2022-09-03T01:47:37.962Z,95.50
2022-09-03T01:50:07.800Z,95.50
2022-09-03T01:52:44.553Z,95.50
2022-09-03T01:55:19.898Z,95.60
2022-09-03T01:57:50.234Z,95.70
2022-09-03T02:00:20.407Z,95.70
2022-09-03T02:02:51.115Z,95.70
2022-09-03T02:05:22.762Z,95.80
2022-09-03T02:07:57.778Z,95.90
2022-09-03T02:10:27.965Z,95.90
2022-09-03T02:12:58.214Z,95.90
2022-09-03T02:15:27.905Z,96.20
2022-09-03T02:17:57.832Z,96.20
2022-09-03T02:20:28.190Z,96.10
2022-09-03T02:22:57.095Z,95.70
2022-09-03T02:25:27.567Z,95.80
2022-09-03T02:27:55.483Z,96.30
2022-09-03T02:30:23.167Z,95.70
2022-09-03T02:32:52.218Z,95.80
2022-09-03T02:35:19.935Z,96.00
2022-09-03T02:37:47.658Z,96.00
2022-09-03T02:40:15.924Z,96.10
2022-09-03T02:42:43.945Z,96.10
2022-09-03T02:45:17.514Z,96.00
2022-09-03T02:47:45.963Z,95.90
2022-09-03T02:50:15.051Z,96.00
2022-09-03T02:52:42.813Z,96.00
2022-09-03T02:55:10.527Z,96.00
2022-09-03T02:57:38.230Z,96.00
2022-09-03T03:00:06.476Z,96.10
2022-09-03T03:02:34.396Z,96.20
2022-09-03T03:05:02.618Z,96.20
2022-09-03T03:07:33.787Z,96.20
2022-09-03T03:10:01.561Z,96.20
2022-09-03T03:12:29.966Z,96.40
2022-09-03T03:14:57.721Z,96.40
2022-09-03T03:17:26.186Z,96.40
2022-09-03T03:19:53.913Z,96.40
2022-09-03T03:22:21.703Z,96.50
2022-09-03T03:24:52.686Z,96.60
2022-09-03T03:27:20.433Z,96.60
2022-09-03T03:29:48.189Z,96.70
2022-09-03T03:32:16.030Z,96.70
2022-09-03T03:34:43.757Z,96.90
2022-09-03T03:37:11.480Z,96.90
2022-09-03T03:39:39.306Z,97.00
2022-09-03T03:42:08.475Z,97.10
2022-09-03T03:44:36.190Z,97.20
2022-09-03T03:47:05.980Z,97.30
2022-09-03T03:49:33.735Z,97.00
2022-09-03T03:52:03.125Z,97.10
2022-09-03T03:54:30.994Z,97.00
2022-09-03T03:56:58.763Z,97.20
2022-09-03T03:59:27.845Z,97.30
2022-09-03T04:01:55.882Z,97.40
2022-09-03T04:04:23.611Z,97.50
2022-09-03T04:06:51.330Z,97.40
2022-09-03T04:09:19.219Z,97.60
2022-09-03T04:11:46.968Z,97.70
2022-09-03T04:14:14.690Z,97.80
2022-09-03T04:16:46.873Z,97.90
2022-09-03T04:19:14.750Z,97.90
2022-09-03T04:21:42.437Z,98.10
2022-09-03T04:24:10.192Z,98.20
2022-09-03T04:26:37.961Z,98.20
2022-09-03T04:29:06.791Z,98.40
2022-09-03T04:31:35.137Z,98.40
2022-09-03T04:34:06.428Z,98.50
2022-09-03T04:36:34.986Z,98.60
2022-09-03T04:39:02.965Z,98.70
2022-09-03T04:41:31.934Z,98.90
2022-09-03T04:44:00.424Z,98.90
2022-09-03T04:46:33.456Z,99.10
2022-09-03T04:49:02.151Z,99.20
2022-09-03T04:51:31.478Z,99.20
2022-09-03T04:54:00.240Z,99.30
2022-09-03T04:56:28.685Z,99.30
2022-09-03T04:58:57.035Z,99.40
2022-09-03T05:01:26.163Z,99.40
2022-09-03T05:03:56.105Z,99.40
2022-09-03T05:06:24.621Z,99.50
2022-09-03T05:08:54.265Z,99.40
2022-09-03T05:11:22.691Z,99.60
2022-09-03T05:13:50.757Z,99.70
2022-09-03T05:16:19.288Z,99.70
2022-09-03T05:18:47.395Z,99.60
2022-09-03T05:21:15.762Z,99.90
2022-09-03T05:23:44.277Z,99.90
2022-09-03T05:26:14.027Z,99.90
2022-09-03T05:28:42.481Z,99.90
2022-09-03T05:31:11.020Z,99.90
2022-09-03T05:33:39.613Z,99.80
2022-09-03T05:36:08.086Z,99.90
2022-09-03T05:38:35.949Z,99.90
2022-09-03T05:41:04.649Z,99.90
2022-09-03T05:43:34.065Z,99.90
2022-09-03T05:46:03.019Z,99.90
2022-09-03T05:48:31.247Z,99.90
2022-09-03T05:51:02.179Z,99.90
2022-09-03T05:53:30.059Z,99.90
2022-09-03T05:55:58.754Z,99.90
2022-09-03T05:58:26.870Z,99.90
2022-09-03T06:00:55.918Z,99.90
2022-09-03T06:03:24.063Z,99.90
2022-09-03T06:05:52.694Z,99.90
2022-09-03T06:08:20.416Z,99.90
2022-09-03T06:10:48.270Z,99.90
2022-09-03T06:13:16.093Z,99.90
2022-09-03T06:15:43.803Z,99.90
2022-09-03T06:18:12.858Z,99.90
2022-09-03T06:20:40.681Z,99.90
2022-09-03T06:23:08.399Z,99.90
2022-09-03T06:25:36.113Z,99.90
2022-09-03T06:28:04.268Z,99.90
2022-09-03T06:30:31.977Z,99.90
2022-09-03T06:32:59.670Z,99.90
2022-09-03T06:35:28.749Z,99.90
2022-09-03T06:38:00.411Z,99.90
2022-09-03T06:40:28.791Z,99.90
2022-09-03T06:42:57.946Z,99.90
2022-09-03T06:45:25.811Z,99.90
2022-09-03T06:47:54.831Z,99.90
2022-09-03T06:50:22.570Z,99.90
2022-09-03T06:52:55.099Z,99.90
2022-09-03T06:55:23.222Z,99.90
2022-09-03T06:57:52.759Z,99.90
2022-09-03T07:00:21.782Z,99.90
2022-09-03T07:02:49.725Z,99.90
2022-09-03T07:05:17.438Z,99.90
2022-09-03T07:07:46.153Z,99.90
2022-09-03T07:10:16.173Z,99.90
2022-09-03T07:12:43.941Z,99.90
2022-09-03T07:15:12.398Z,99.90
2022-09-03T07:17:40.348Z,99.90
2022-09-03T07:20:08.415Z,99.90
2022-09-03T07:22:37.222Z,99.90
2022-09-03T07:25:05.317Z,99.90
2022-09-03T07:27:35.416Z,99.90
2022-09-03T07:30:03.694Z,99.90
2022-09-03T07:32:31.421Z,99.90
2022-09-03T07:34:59.134Z,99.90
2022-09-03T07:37:27.127Z,99.90
2022-09-03T07:39:55.142Z,99.90
2022-09-03T07:42:22.863Z,99.90
2022-09-03T07:44:51.963Z,99.90
2022-09-03T07:48:01.876Z,99.90
2022-09-03T07:50:32.831Z,99.90
2022-09-03T07:53:00.645Z,99.90
2022-09-03T07:55:28.415Z,99.90
2022-09-03T07:57:56.631Z,99.90
2022-09-03T08:00:25.968Z,99.90
2022-09-03T08:02:56.575Z,99.90
2022-09-03T08:05:24.294Z,99.90
2022-09-03T08:07:52.011Z,99.90
2022-09-03T08:10:19.977Z,99.90
2022-09-03T08:12:47.775Z,99.90
2022-09-03T08:15:15.618Z,99.90
2022-09-03T08:17:46.195Z,99.90
2022-09-03T08:20:13.937Z,99.90
2022-09-03T08:22:41.730Z,99.90
2022-09-03T08:25:09.823Z,99.90
2022-09-03T08:27:41.836Z,99.90
2022-09-03T08:30:11.884Z,99.90
2022-09-03T08:32:39.874Z,99.90
2022-09-03T08:35:09.885Z,99.90
2022-09-03T08:37:37.626Z,99.90
2022-09-03T08:40:06.175Z,99.90
2022-09-03T08:42:44.239Z,99.90
2022-09-03T08:45:16.820Z,99.90
2022-09-03T08:47:46.421Z,99.90
2022-09-03T08:50:19.196Z,99.90
2022-09-03T08:52:48.975Z,99.90
2022-09-03T08:55:18.771Z,99.90
2022-09-03T08:57:47.947Z,99.90
2022-09-03T09:00:16.014Z,99.90
2022-09-03T09:02:49.616Z,99.90
2022-09-03T09:05:20.157Z,99.90
2022-09-03T09:07:51.688Z,99.90
2022-09-03T09:10:22.104Z,99.90
2022-09-03T09:12:57.681Z,99.90
2022-09-03T09:15:29.515Z,99.90
2022-09-03T09:18:04.613Z,99.90
2022-09-03T09:20:42.623Z,99.90
2022-09-03T09:23:13.871Z,99.90
2022-09-03T09:25:46.054Z,99.90
2022-09-03T09:28:16.631Z,99.90
2022-09-03T09:30:47.423Z,99.90
2022-09-03T09:33:15.854Z,99.90
2022-09-03T09:35:45.927Z,99.90
2022-09-03T09:38:14.077Z,99.90
2022-09-03T09:40:45.655Z,99.90
2022-09-03T09:43:16.066Z,99.90
2022-09-03T09:45:45.085Z,99.90
2022-09-03T09:48:21.188Z,99.90
2022-09-03T09:50:50.501Z,99.90
2022-09-03T09:53:21.479Z,99.90
2022-09-03T09:55:50.313Z,99.90
2022-09-03T09:58:20.359Z,99.90
2022-09-03T10:01:00.330Z,99.90
2022-09-03T10:03:29.794Z,99.90
2022-09-03T10:06:23.263Z,99.90
2022-09-03T10:08:50.974Z,99.90
2022-09-03T10:11:19.457Z,99.90
2022-09-03T10:13:49.042Z,99.90
2022-09-03T10:16:22.315Z,99.90
2022-09-03T10:18:54.210Z,99.90
2022-09-03T10:21:29.126Z,99.90
2022-09-03T10:24:02.664Z,99.90
2022-09-03T10:26:35.934Z,99.90
2022-09-03T10:29:05.838Z,99.90
2022-09-03T10:31:54.056Z,99.90
2022-09-03T10:34:24.547Z,99.90
2022-09-03T10:36:57.462Z,99.90
2022-09-03T10:39:31.595Z,99.90
2022-09-03T10:42:22.021Z,99.90
2022-09-03T10:44:55.985Z,99.90
2022-09-03T10:47:32.916Z,99.90
2022-09-03T10:50:03.828Z,99.90
2022-09-03T10:52:39.258Z,99.90
2022-09-03T10:55:15.129Z,99.90
2022-09-03T10:57:47.116Z,99.90
2022-09-03T11:00:16.372Z,99.90
2022-09-03T11:02:55.518Z,99.90
2022-09-03T11:05:29.705Z,99.90
2022-09-03T11:08:02.426Z,99.90
2022-09-03T11:10:31.428Z,99.90
2022-09-03T11:13:02.571Z,99.90
2022-09-03T11:15:33.570Z,99.90
2022-09-03T11:18:03.512Z,99.90
2022-09-03T11:20:32.130Z,99.90
2022-09-03T11:23:03.921Z,99.90
2022-09-03T11:25:33.445Z,99.90
2022-09-03T11:28:11.999Z,99.90
2022-09-03T11:30:49.693Z,99.90
2022-09-03T11:33:19.167Z,99.90
2022-09-03T11:35:47.031Z,99.90
2022-09-03T11:38:24.672Z,99.90
2022-09-03T11:40:58.853Z,99.90
2022-09-03T11:43:28.412Z,99.90
2022-09-03T11:46:03.101Z,99.90
2022-09-03T11:48:37.380Z,99.90
2022-09-03T11:51:06.095Z,99.90
2022-09-03T11:53:38.731Z,99.90
2022-09-03T11:56:18.894Z,99.90
2022-09-03T11:58:47.769Z,99.90
2022-09-03T12:01:18.106Z,99.90
2022-09-03T12:03:47.442Z,99.90
2022-09-03T12:06:27.446Z,99.90
2022-09-03T12:09:05.727Z,99.90
2022-09-03T12:11:38.520Z,99.90
2022-09-03T12:14:13.902Z,99.90
2022-09-03T12:16:56.252Z,99.90
2022-09-03T12:19:28.709Z,99.90
2022-09-03T12:21:56.469Z,99.90
2022-09-03T12:24:28.891Z,99.90
2022-09-03T12:26:58.520Z,99.90
2022-09-03T12:29:28.134Z,99.90
2022-09-03T12:32:07.285Z,99.90
2022-09-03T12:34:35.333Z,99.90
2022-09-03T12:37:03.264Z,99.90
2022-09-03T12:42:22.666Z,99.90
2022-09-03T12:44:50.390Z,99.90
2022-09-03T12:47:36.486Z,99.90
2022-09-03T12:50:07.642Z,99.90
2022-09-03T12:52:37.417Z,99.90
2022-09-03T12:55:09.493Z,99.90
2022-09-03T12:57:39.324Z,99.90
2022-09-03T13:00:08.905Z,99.90
2022-09-03T13:02:40.412Z,99.90
2022-09-03T13:05:12.582Z,99.90
2022-09-03T13:07:44.934Z,99.90
2022-09-03T13:10:24.757Z,99.90
2022-09-03T13:12:53.653Z,99.90
2022-09-03T13:15:23.275Z,99.90
2022-09-03T13:17:58.197Z,99.90
2022-09-03T13:20:32.141Z,99.90
2022-09-03T13:23:08.351Z,99.90
2022-09-03T13:25:42.229Z,99.90
2022-09-03T13:28:17.835Z,99.90
2022-09-03T13:30:49.893Z,99.90
2022-09-03T13:33:21.175Z,99.90
2022-09-03T13:35:50.676Z,99.90
2022-09-03T13:38:22.599Z,99.90
2022-09-03T13:40:55.166Z,99.90
2022-09-03T13:43:28.334Z,99.90
2022-09-03T13:45:58.939Z,99.90
2022-09-03T13:48:47.380Z,99.90
2022-09-03T13:51:17.929Z,99.90
2022-09-03T13:53:50.452Z,99.90
2022-09-03T13:56:25.594Z,99.90
2022-09-03T13:58:57.655Z,99.90
2022-09-03T14:01:27.790Z,99.90
2022-09-03T14:03:58.156Z,99.90
2022-09-03T14:06:31.982Z,99.90
2022-09-03T14:09:07.573Z,99.90
2022-09-03T14:11:42.055Z,99.90
2022-09-03T14:14:14.829Z,99.90
2022-09-03T14:16:45.672Z,99.90
2022-09-03T14:19:16.257Z,99.90
2022-09-03T14:21:46.251Z,99.90
2022-09-03T14:24:16.015Z,99.90
2022-09-03T14:26:52.469Z,99.90
2022-09-03T14:29:21.855Z,99.90
2022-09-03T14:31:54.082Z,99.90
2022-09-03T14:34:27.632Z,99.90
2022-09-03T14:37:05.106Z,99.90
2022-09-03T14:39:34.675Z,99.90
2022-09-03T14:42:20.035Z,99.90
2022-09-03T14:44:57.466Z,99.90
2022-09-03T14:47:31.023Z,99.90
2022-09-03T14:50:03.944Z,99.90
2022-09-03T14:52:38.817Z,99.90
2022-09-03T14:55:24.301Z,99.90
2022-09-03T14:58:11.126Z,99.90
2022-09-03T15:00:48.435Z,99.90
2022-09-03T15:03:31.143Z,99.90
2022-09-03T15:06:17.806Z,99.90
2022-09-03T15:08:50.566Z,99.90
2022-09-03T15:11:22.693Z,99.90
2022-09-03T15:13:53.671Z,99.90
2022-09-03T15:16:29.987Z,99.90
2022-09-03T15:19:04.817Z,99.90
2022-09-03T15:21:41.011Z,99.90
2022-09-03T15:24:11.023Z,99.90
2022-09-03T15:26:48.166Z,99.90
2022-09-03T15:29:24.005Z,99.90
2022-09-03T15:31:57.835Z,99.90
2022-09-03T15:34:37.111Z,99.90
2022-09-03T15:37:11.676Z,99.90
2022-09-03T15:39:41.520Z,99.90
2022-09-03T15:42:14.136Z,99.90
2022-09-03T15:44:45.916Z,99.90
2022-09-03T15:47:19.819Z,99.90
2022-09-03T15:49:54.870Z,99.90
2022-09-03T15:52:29.770Z,99.90
2022-09-03T15:54:59.076Z,99.90
2022-09-03T15:57:27.521Z,99.90
2022-09-03T16:00:01.470Z,99.90
2022-09-03T16:02:33.480Z,99.90
2022-09-03T16:05:08.824Z,99.90
2022-09-03T16:07:48.840Z,99.90
2022-09-03T16:10:25.997Z,99.90
2022-09-03T16:13:00.696Z,99.90
2022-09-03T16:15:31.783Z,99.90
2022-09-03T16:18:02.764Z,99.90
2022-09-03T16:20:35.319Z,99.90
2022-09-03T16:23:06.630Z,99.90
2022-09-03T16:25:38.546Z,99.90
2022-09-03T16:28:14.679Z,99.90
2022-09-03T16:30:53.415Z,99.90
2022-09-03T16:33:24.652Z,99.90
2022-09-03T16:35:57.130Z,99.90
2022-09-03T16:38:29.345Z,99.90
2022-09-03T16:40:59.049Z,99.90
2022-09-03T16:43:40.587Z,99.90
2022-09-03T16:46:17.114Z,99.90
2022-09-03T16:48:50.035Z,99.90
2022-09-03T16:51:23.849Z,99.90
2022-09-03T16:54:04.750Z,99.90
2022-09-03T16:56:38.310Z,99.90
2022-09-03T16:59:11.806Z,99.90
2022-09-03T17:01:52.314Z,99.90
2022-09-03T17:04:37.831Z,99.90
2022-09-03T17:07:09.631Z,99.90
2022-09-03T17:09:48.905Z,99.90
2022-09-03T17:12:24.992Z,99.90
2022-09-03T17:15:22.744Z,99.90
2022-09-03T17:18:07.968Z,99.90
2022-09-03T17:20:49.180Z,99.90
2022-09-03T17:23:26.426Z,99.90
2022-09-03T17:25:58.158Z,99.90
2022-09-03T17:28:27.943Z,99.90
2022-09-03T17:30:58.001Z,99.90
2022-09-03T17:33:45.786Z,99.90
2022-09-03T17:36:17.998Z,99.90
2022-09-03T17:38:59.881Z,99.90
2022-09-03T17:41:34.270Z,99.90
2022-09-03T17:44:06.410Z,99.90
2022-09-03T17:46:39.176Z,99.90
2022-09-03T17:49:08.239Z,99.90
2022-09-03T17:51:42.814Z,99.90
2022-09-03T17:54:16.467Z,99.90
2022-09-03T17:56:48.631Z,99.90
2022-09-03T17:59:20.462Z,99.90
2022-09-03T18:01:51.244Z,99.90
2022-09-03T18:04:30.527Z,99.90
2022-09-03T18:07:05.816Z,99.90
2022-09-03T18:09:37.984Z,99.90
2022-09-03T18:12:09.008Z,99.90
2022-09-03T18:14:41.160Z,99.90
2022-09-03T18:17:10.674Z,99.90
2022-09-03T18:19:58.470Z,99.90
2022-09-03T18:22:49.171Z,99.90
2022-09-03T18:25:35.447Z,99.90
2022-09-03T18:28:23.461Z,99.90
2022-09-03T18:31:11.972Z,99.90
2022-09-03T18:33:57.417Z,99.90
2022-09-03T18:36:43.195Z,99.90
2022-09-03T18:39:33.370Z,99.90
2022-09-03T18:42:21.323Z,99.90
2022-09-03T18:45:23.127Z,99.90
2022-09-03T18:48:19.601Z,99.90
2022-09-03T18:51:11.662Z,99.90
2022-09-03T18:54:01.731Z,99.90
2022-09-03T18:56:53.554Z,99.90
2022-09-03T18:59:48.962Z,99.90
2022-09-03T19:02:41.778Z,99.90
2022-09-03T19:05:32.895Z,99.90
2022-09-03T19:08:24.038Z,99.90
2022-09-03T19:11:13.111Z,99.90
2022-09-03T19:14:00.112Z,99.90
2022-09-03T19:16:52.283Z,99.90
2022-09-03T19:19:46.817Z,99.90
2022-09-03T19:22:35.997Z,99.90
2022-09-03T19:25:22.873Z,99.90
2022-09-03T19:28:13.767Z,99.90
2022-09-03T19:31:14.069Z,99.90
2022-09-03T19:34:06.673Z,99.90
2022-09-03T19:36:56.462Z,99.90
2022-09-03T19:39:48.782Z,99.90
2022-09-03T19:42:38.339Z,99.90
2022-09-03T19:45:30.194Z,99.90
2022-09-03T19:48:20.509Z,99.90
2022-09-03T19:51:12.474Z,99.90
2022-09-03T19:53:57.677Z,99.90
2022-09-03T19:56:45.761Z,99.90
2022-09-03T19:59:31.866Z,99.90
2022-09-03T20:02:17.737Z,99.90
2022-09-03T20:05:06.300Z,99.90
2022-09-03T20:07:53.093Z,99.90
2022-09-03T20:10:23.573Z,99.90
2022-09-03T20:12:55.614Z,99.90
2022-09-03T20:15:25.555Z,99.90
2022-09-03T20:18:02.179Z,99.90
2022-09-03T20:20:35.186Z,99.90
2022-09-03T20:23:05.176Z,99.90
2022-09-03T20:25:47.776Z,99.90
2022-09-03T20:28:26.421Z,99.90
2022-09-03T20:30:57.436Z,99.90
2022-09-03T20:33:34.519Z,99.90
2022-09-03T20:36:07.613Z,99.90
2022-09-03T20:38:59.601Z,99.90
2022-09-03T20:41:34.106Z,99.90
2022-09-03T20:44:09.975Z,99.90
2022-09-03T20:46:45.538Z,99.90
2022-09-03T20:49:21.806Z,99.90
2022-09-03T20:51:55.129Z,99.90
2022-09-03T20:54:29.978Z,99.90
2022-09-03T20:57:05.646Z,99.90
2022-09-03T20:59:38.218Z,99.90
2022-09-03T21:02:10.816Z,99.90
2022-09-03T21:04:47.939Z,99.90
2022-09-03T21:07:20.830Z,99.90
2022-09-03T21:09:53.203Z,99.90
2022-09-03T21:12:25.329Z,99.90
2022-09-03T21:14:55.479Z,99.90
2022-09-03T21:17:29.315Z,99.90
2022-09-03T21:20:15.899Z,99.90
2022-09-03T21:22:52.671Z,99.90
2022-09-03T21:25:24.224Z,99.90
2022-09-03T21:27:55.091Z,99.90
2022-09-03T21:30:22.856Z,99.90
2022-09-03T21:32:53.158Z,99.90
2022-09-03T21:35:22.668Z,99.90
2022-09-03T21:37:55.711Z,99.90
2022-09-03T21:40:26.811Z,99.90
2022-09-03T21:43:01.450Z,99.90
2022-09-03T21:45:31.336Z,99.90
2022-09-03T21:48:01.031Z,99.90
2022-09-03T21:50:31.086Z,99.90
2022-09-03T21:53:03.243Z,99.90
2022-09-03T21:55:35.771Z,99.90
2022-09-03T21:58:09.819Z,99.90
2022-09-03T22:00:37.830Z,99.90
2022-09-03T22:03:07.006Z,99.90
2022-09-03T22:05:42.352Z,99.90
2022-09-03T22:08:18.875Z,99.90
2022-09-03T22:10:52.619Z,99.90
2022-09-03T22:13:24.787Z,99.90
2022-09-03T22:15:55.907Z,99.90
2022-09-03T22:18:29.248Z,99.90
2022-09-03T22:21:03.063Z,99.90
2022-09-03T22:23:43.531Z,99.90
2022-09-03T22:26:25.017Z,99.90
2022-09-03T22:29:02.813Z,99.90
2022-09-03T22:31:36.938Z,99.90
2022-09-03T22:34:12.471Z,99.90
2022-09-03T22:36:41.305Z,99.90
2022-09-03T22:39:15.290Z,99.90
2022-09-03T22:41:52.532Z,99.90
2022-09-03T22:44:28.230Z,99.90
2022-09-03T22:47:01.242Z,99.90
2022-09-03T22:49:42.403Z,99.90
2022-09-03T22:52:16.641Z,99.90
2022-09-03T22:54:56.979Z,99.90
2022-09-03T22:57:26.633Z,99.90
2022-09-03T22:59:57.304Z,99.90
2022-09-03T23:02:27.406Z,99.90
2022-09-03T23:04:59.450Z,99.90
2022-09-03T23:07:33.229Z,99.90
2022-09-03T23:10:03.506Z,99.90
2022-09-03T23:12:34.616Z,99.90
2022-09-03T23:15:06.747Z,99.90
2022-09-03T23:22:36.215Z,99.90
2022-09-03T23:25:07.296Z,99.90
2022-09-03T23:27:36.982Z,99.90
2022-09-03T23:30:05.409Z,99.90
2022-09-03T23:32:33.687Z,99.90
2022-09-03T23:35:03.112Z,99.90
2022-09-03T23:37:43.510Z,99.90
2022-09-03T23:40:17.279Z,99.90
2022-09-03T23:42:54.930Z,99.90
2022-09-03T23:45:30.412Z,99.90
2022-09-03T23:48:02.187Z,99.90
2022-09-03T23:50:33.047Z,99.90
2022-09-03T23:53:06.203Z,99.90
2022-09-03T23:55:41.726Z,99.90
2022-09-03T23:58:12.284Z,99.90
